sensor_id;sensor_type;location;lat;lon;timestamp;P1;durP1;ratioP1;P2;durP2;ratioP2
55784;SDS011;41709;52.536;5.688;2023-05-10T00:00:21;9.18;;;7.55;;
55784;SDS011;41709;52.536;5.688;2023-05-10T00:02:48;7.95;;;6.97;;
55784;SDS011;41709;52.536;5.688;2023-05-10T00:05:14;8.45;;;6.60;;
55784;SDS011;41709;52.536;5.688;2023-05-10T00:07:40;8.30;;;7.05;;
55784;SDS011;41709;52.536;5.688;2023-05-10T00:10:06;9.63;;;7.93;;
55784;SDS011;41709;52.536;5.688;2023-05-10T00:12:31;9.98;;;7.70;;
55784;SDS011;41709;52.536;5.688;2023-05-10T00:14:57;9.63;;;7.68;;
55784;SDS011;41709;52.536;5.688;2023-05-10T00:17:22;10.18;;;8.02;;
55784;SDS011;41709;52.536;5.688;2023-05-10T00:19:48;8.88;;;7.35;;
55784;SDS011;41709;52.536;5.688;2023-05-10T00:22:13;8.80;;;7.13;;
55784;SDS011;41709;52.536;5.688;2023-05-10T00:24:39;12.63;;;8.00;;
55784;SDS011;41709;52.536;5.688;2023-05-10T00:27:05;9.77;;;8.15;;
55784;SDS011;41709;52.536;5.688;2023-05-10T00:29:30;9.88;;;7.60;;
55784;SDS011;41709;52.536;5.688;2023-05-10T00:31:56;9.38;;;6.88;;
55784;SDS011;41709;52.536;5.688;2023-05-10T00:34:22;9.43;;;6.68;;
55784;SDS011;41709;52.536;5.688;2023-05-10T00:36:47;9.43;;;6.97;;
55784;SDS011;41709;52.536;5.688;2023-05-10T00:39:13;9.82;;;7.15;;
55784;SDS011;41709;52.536;5.688;2023-05-10T00:41:38;12.20;;;7.10;;
55784;SDS011;41709;52.536;5.688;2023-05-10T00:44:04;11.95;;;7.95;;
55784;SDS011;41709;52.536;5.688;2023-05-10T00:46:30;11.25;;;7.60;;
55784;SDS011;41709;52.536;5.688;2023-05-10T00:48:56;10.80;;;7.88;;
55784;SDS011;41709;52.536;5.688;2023-05-10T00:51:22;8.73;;;6.82;;
55784;SDS011;41709;52.536;5.688;2023-05-10T00:53:48;13.07;;;7.70;;
55784;SDS011;41709;52.536;5.688;2023-05-10T00:56:14;13.98;;;7.40;;
55784;SDS011;41709;52.536;5.688;2023-05-10T00:58:40;10.45;;;7.70;;
55784;SDS011;41709;52.536;5.688;2023-05-10T01:01:06;11.57;;;7.55;;
55784;SDS011;41709;52.536;5.688;2023-05-10T01:03:34;14.68;;;8.10;;
55784;SDS011;41709;52.536;5.688;2023-05-10T01:06:00;11.18;;;7.68;;
55784;SDS011;41709;52.536;5.688;2023-05-10T01:08:26;12.30;;;8.00;;
55784;SDS011;41709;52.536;5.688;2023-05-10T01:10:52;12.32;;;7.65;;
55784;SDS011;41709;52.536;5.688;2023-05-10T01:13:26;10.43;;;7.80;;
55784;SDS011;41709;52.536;5.688;2023-05-10T01:15:56;12.88;;;8.10;;
55784;SDS011;41709;52.536;5.688;2023-05-10T01:18:23;13.13;;;7.50;;
55784;SDS011;41709;52.536;5.688;2023-05-10T01:20:57;10.63;;;7.65;;
55784;SDS011;41709;52.536;5.688;2023-05-10T01:43:22;10.82;;;7.28;;
55784;SDS011;41709;52.536;5.688;2023-05-10T01:45:59;8.63;;;6.63;;
55784;SDS011;41709;52.536;5.688;2023-05-10T01:48:35;8.93;;;6.60;;
55784;SDS011;41709;52.536;5.688;2023-05-10T01:51:05;10.25;;;7.35;;
55784;SDS011;41709;52.536;5.688;2023-05-10T01:53:31;11.70;;;7.68;;
55784;SDS011;41709;52.536;5.688;2023-05-10T01:56:02;9.82;;;7.55;;
55784;SDS011;41709;52.536;5.688;2023-05-10T01:58:29;12.35;;;6.72;;
55784;SDS011;41709;52.536;5.688;2023-05-10T02:00:58;11.80;;;7.53;;
55784;SDS011;41709;52.536;5.688;2023-05-10T02:05:53;10.18;;;7.38;;
55784;SDS011;41709;52.536;5.688;2023-05-10T02:08:21;11.68;;;7.32;;
55784;SDS011;41709;52.536;5.688;2023-05-10T02:10:47;9.90;;;7.20;;
55784;SDS011;41709;52.536;5.688;2023-05-10T02:13:16;12.75;;;7.72;;
55784;SDS011;41709;52.536;5.688;2023-05-10T02:15:43;13.27;;;8.40;;
55784;SDS011;41709;52.536;5.688;2023-05-10T02:20:38;14.18;;;8.13;;
55784;SDS011;41709;52.536;5.688;2023-05-10T02:23:04;13.27;;;8.88;;
55784;SDS011;41709;52.536;5.688;2023-05-10T02:25:31;12.93;;;8.77;;
55784;SDS011;41709;52.536;5.688;2023-05-10T02:27:57;16.25;;;8.45;;
55784;SDS011;41709;52.536;5.688;2023-05-10T02:30:26;11.52;;;8.18;;
55784;SDS011;41709;52.536;5.688;2023-05-10T02:32:53;13.07;;;8.20;;
55784;SDS011;41709;52.536;5.688;2023-05-10T02:35:19;14.27;;;8.77;;
55784;SDS011;41709;52.536;5.688;2023-05-10T02:37:46;13.10;;;8.98;;
55784;SDS011;41709;52.536;5.688;2023-05-10T02:40:12;13.68;;;8.88;;
55784;SDS011;41709;52.536;5.688;2023-05-10T02:42:40;13.88;;;9.20;;
55784;SDS011;41709;52.536;5.688;2023-05-10T02:45:10;13.45;;;8.80;;
55784;SDS011;41709;52.536;5.688;2023-05-10T02:47:38;12.00;;;8.68;;
55784;SDS011;41709;52.536;5.688;2023-05-10T02:50:04;16.48;;;9.82;;
55784;SDS011;41709;52.536;5.688;2023-05-10T02:52:34;15.10;;;9.63;;
55784;SDS011;41709;52.536;5.688;2023-05-10T02:55:08;16.70;;;9.73;;
55784;SDS011;41709;52.536;5.688;2023-05-10T02:57:38;14.50;;;9.55;;
55784;SDS011;41709;52.536;5.688;2023-05-10T03:00:07;13.50;;;9.70;;
55784;SDS011;41709;52.536;5.688;2023-05-10T03:02:33;17.02;;;9.93;;
55784;SDS011;41709;52.536;5.688;2023-05-10T03:04:59;15.82;;;9.80;;
55784;SDS011;41709;52.536;5.688;2023-05-10T03:07:24;15.23;;;9.10;;
55784;SDS011;41709;52.536;5.688;2023-05-10T03:09:50;16.35;;;9.50;;
55784;SDS011;41709;52.536;5.688;2023-05-10T03:12:25;12.75;;;8.75;;
55784;SDS011;41709;52.536;5.688;2023-05-10T03:15:11;14.60;;;8.77;;
55784;SDS011;41709;52.536;5.688;2023-05-10T03:18:01;15.75;;;9.55;;
55784;SDS011;41709;52.536;5.688;2023-05-10T03:20:50;14.88;;;9.13;;
55784;SDS011;41709;52.536;5.688;2023-05-10T03:23:21;14.82;;;9.07;;
55784;SDS011;41709;52.536;5.688;2023-05-10T03:25:52;12.38;;;8.60;;
55784;SDS011;41709;52.536;5.688;2023-05-10T03:28:18;13.13;;;8.77;;
55784;SDS011;41709;52.536;5.688;2023-05-10T03:30:45;13.63;;;8.60;;
55784;SDS011;41709;52.536;5.688;2023-05-10T03:33:11;16.10;;;8.88;;
55784;SDS011;41709;52.536;5.688;2023-05-10T03:35:38;15.43;;;9.00;;
55784;SDS011;41709;52.536;5.688;2023-05-10T03:38:03;15.63;;;9.02;;
55784;SDS011;41709;52.536;5.688;2023-05-10T03:40:29;16.75;;;10.07;;
55784;SDS011;41709;52.536;5.688;2023-05-10T03:42:56;16.13;;;10.20;;
55784;SDS011;41709;52.536;5.688;2023-05-10T03:45:23;17.98;;;10.43;;
55784;SDS011;41709;52.536;5.688;2023-05-10T03:47:48;17.80;;;10.25;;
55784;SDS011;41709;52.536;5.688;2023-05-10T03:50:14;15.38;;;10.57;;
55784;SDS011;41709;52.536;5.688;2023-05-10T03:52:39;17.55;;;10.02;;
55784;SDS011;41709;52.536;5.688;2023-05-10T03:55:05;15.40;;;10.88;;
55784;SDS011;41709;52.536;5.688;2023-05-10T03:57:31;14.32;;;9.80;;
55784;SDS011;41709;52.536;5.688;2023-05-10T03:59:57;17.35;;;9.82;;
55784;SDS011;41709;52.536;5.688;2023-05-10T04:02:22;14.50;;;9.48;;
55784;SDS011;41709;52.536;5.688;2023-05-10T04:04:48;13.80;;;10.02;;
55784;SDS011;41709;52.536;5.688;2023-05-10T04:07:14;15.55;;;10.23;;
55784;SDS011;41709;52.536;5.688;2023-05-10T04:09:39;15.55;;;9.70;;
55784;SDS011;41709;52.536;5.688;2023-05-10T04:12:05;18.75;;;10.52;;
55784;SDS011;41709;52.536;5.688;2023-05-10T04:14:31;15.75;;;10.35;;
55784;SDS011;41709;52.536;5.688;2023-05-10T04:16:56;16.67;;;9.82;;
55784;SDS011;41709;52.536;5.688;2023-05-10T04:19:22;15.43;;;11.43;;
55784;SDS011;41709;52.536;5.688;2023-05-10T04:21:48;16.73;;;11.23;;
55784;SDS011;41709;52.536;5.688;2023-05-10T04:24:13;14.00;;;10.80;;
55784;SDS011;41709;52.536;5.688;2023-05-10T04:26:39;12.65;;;9.50;;
55784;SDS011;41709;52.536;5.688;2023-05-10T04:29:04;13.15;;;9.18;;
55784;SDS011;41709;52.536;5.688;2023-05-10T04:31:30;13.25;;;9.60;;
55784;SDS011;41709;52.536;5.688;2023-05-10T04:33:56;13.40;;;8.65;;
55784;SDS011;41709;52.536;5.688;2023-05-10T04:36:21;12.88;;;8.63;;
55784;SDS011;41709;52.536;5.688;2023-05-10T04:38:47;16.63;;;10.48;;
55784;SDS011;41709;52.536;5.688;2023-05-10T04:41:13;13.68;;;9.73;;
55784;SDS011;41709;52.536;5.688;2023-05-10T04:43:38;15.73;;;9.52;;
55784;SDS011;41709;52.536;5.688;2023-05-10T04:46:04;16.45;;;9.48;;
55784;SDS011;41709;52.536;5.688;2023-05-10T04:48:30;17.77;;;10.63;;
55784;SDS011;41709;52.536;5.688;2023-05-10T04:50:56;16.33;;;10.35;;
55784;SDS011;41709;52.536;5.688;2023-05-10T04:53:21;18.48;;;10.18;;
55784;SDS011;41709;52.536;5.688;2023-05-10T04:55:47;16.95;;;9.65;;
55784;SDS011;41709;52.536;5.688;2023-05-10T04:58:13;15.27;;;8.90;;
55784;SDS011;41709;52.536;5.688;2023-05-10T05:00:39;18.25;;;10.30;;
55784;SDS011;41709;52.536;5.688;2023-05-10T05:03:04;18.23;;;10.10;;
55784;SDS011;41709;52.536;5.688;2023-05-10T05:05:30;18.67;;;10.82;;
55784;SDS011;41709;52.536;5.688;2023-05-10T05:07:56;19.73;;;9.90;;
55784;SDS011;41709;52.536;5.688;2023-05-10T05:10:22;20.63;;;10.45;;
55784;SDS011;41709;52.536;5.688;2023-05-10T05:12:47;20.38;;;10.32;;
55784;SDS011;41709;52.536;5.688;2023-05-10T05:15:13;17.85;;;9.88;;
55784;SDS011;41709;52.536;5.688;2023-05-10T05:17:40;16.70;;;9.77;;
55784;SDS011;41709;52.536;5.688;2023-05-10T05:20:05;17.60;;;10.43;;
55784;SDS011;41709;52.536;5.688;2023-05-10T05:22:32;22.10;;;10.88;;
55784;SDS011;41709;52.536;5.688;2023-05-10T05:24:57;22.20;;;11.23;;
55784;SDS011;41709;52.536;5.688;2023-05-10T05:27:23;18.48;;;10.23;;
55784;SDS011;41709;52.536;5.688;2023-05-10T05:29:52;18.08;;;9.20;;
55784;SDS011;41709;52.536;5.688;2023-05-10T05:32:18;16.73;;;9.75;;
55784;SDS011;41709;52.536;5.688;2023-05-10T05:34:44;16.88;;;10.27;;
55784;SDS011;41709;52.536;5.688;2023-05-10T05:37:17;17.65;;;9.93;;
55784;SDS011;41709;52.536;5.688;2023-05-10T05:39:44;19.25;;;10.35;;
55784;SDS011;41709;52.536;5.688;2023-05-10T05:42:10;16.08;;;9.90;;
55784;SDS011;41709;52.536;5.688;2023-05-10T05:44:36;18.40;;;10.35;;
55784;SDS011;41709;52.536;5.688;2023-05-10T05:47:03;19.40;;;9.80;;
55784;SDS011;41709;52.536;5.688;2023-05-10T05:49:28;24.08;;;11.68;;
55784;SDS011;41709;52.536;5.688;2023-05-10T05:52:02;19.48;;;10.68;;
55784;SDS011;41709;52.536;5.688;2023-05-10T05:54:28;17.42;;;10.48;;
55784;SDS011;41709;52.536;5.688;2023-05-10T05:56:55;18.13;;;9.93;;
55784;SDS011;41709;52.536;5.688;2023-05-10T05:59:21;16.63;;;10.13;;
55784;SDS011;41709;52.536;5.688;2023-05-10T06:01:47;17.50;;;9.70;;
55784;SDS011;41709;52.536;5.688;2023-05-10T06:04:12;14.00;;;9.38;;
55784;SDS011;41709;52.536;5.688;2023-05-10T06:06:38;16.77;;;10.13;;
55784;SDS011;41709;52.536;5.688;2023-05-10T06:09:03;13.38;;;8.57;;
55784;SDS011;41709;52.536;5.688;2023-05-10T06:11:29;11.95;;;8.38;;
55784;SDS011;41709;52.536;5.688;2023-05-10T06:13:57;14.15;;;8.20;;
55784;SDS011;41709;52.536;5.688;2023-05-10T06:16:23;13.13;;;7.55;;
55784;SDS011;41709;52.536;5.688;2023-05-10T06:18:48;13.48;;;8.15;;
55784;SDS011;41709;52.536;5.688;2023-05-10T06:21:14;13.80;;;7.72;;
55784;SDS011;41709;52.536;5.688;2023-05-10T06:23:41;15.60;;;8.55;;
55784;SDS011;41709;52.536;5.688;2023-05-10T06:26:06;19.67;;;8.05;;
55784;SDS011;41709;52.536;5.688;2023-05-10T06:28:32;11.40;;;7.55;;
55784;SDS011;41709;52.536;5.688;2023-05-10T06:30:58;10.98;;;7.40;;
55784;SDS011;41709;52.536;5.688;2023-05-10T06:33:24;11.95;;;7.90;;
55784;SDS011;41709;52.536;5.688;2023-05-10T06:35:49;12.85;;;7.57;;
55784;SDS011;41709;52.536;5.688;2023-05-10T06:38:15;12.02;;;7.43;;
55784;SDS011;41709;52.536;5.688;2023-05-10T06:40:41;10.50;;;7.22;;
55784;SDS011;41709;52.536;5.688;2023-05-10T06:43:07;9.45;;;6.82;;
55784;SDS011;41709;52.536;5.688;2023-05-10T06:45:32;8.80;;;5.95;;
55784;SDS011;41709;52.536;5.688;2023-05-10T06:47:58;9.02;;;7.15;;
55784;SDS011;41709;52.536;5.688;2023-05-10T06:50:24;9.45;;;6.60;;
55784;SDS011;41709;52.536;5.688;2023-05-10T06:52:49;7.72;;;6.32;;
55784;SDS011;41709;52.536;5.688;2023-05-10T06:55:15;10.30;;;6.88;;
55784;SDS011;41709;52.536;5.688;2023-05-10T06:57:40;8.60;;;6.80;;
55784;SDS011;41709;52.536;5.688;2023-05-10T07:00:06;8.75;;;6.07;;
55784;SDS011;41709;52.536;5.688;2023-05-10T07:02:32;8.75;;;6.13;;
55784;SDS011;41709;52.536;5.688;2023-05-10T07:04:58;9.23;;;6.50;;
55784;SDS011;41709;52.536;5.688;2023-05-10T07:07:23;8.77;;;6.22;;
55784;SDS011;41709;52.536;5.688;2023-05-10T07:09:49;8.35;;;5.90;;
55784;SDS011;41709;52.536;5.688;2023-05-10T07:12:16;8.20;;;5.97;;
55784;SDS011;41709;52.536;5.688;2023-05-10T07:14:41;9.63;;;6.45;;
55784;SDS011;41709;52.536;5.688;2023-05-10T07:17:07;10.38;;;7.57;;
55784;SDS011;41709;52.536;5.688;2023-05-10T07:19:33;8.10;;;6.35;;
55784;SDS011;41709;52.536;5.688;2023-05-10T07:21:58;8.80;;;6.88;;
55784;SDS011;41709;52.536;5.688;2023-05-10T07:24:24;9.48;;;6.80;;
55784;SDS011;41709;52.536;5.688;2023-05-10T07:26:50;8.48;;;6.80;;
55784;SDS011;41709;52.536;5.688;2023-05-10T07:29:15;7.25;;;5.70;;
55784;SDS011;41709;52.536;5.688;2023-05-10T07:31:41;8.20;;;5.93;;
55784;SDS011;41709;52.536;5.688;2023-05-10T07:34:07;9.57;;;6.63;;
55784;SDS011;41709;52.536;5.688;2023-05-10T07:36:33;10.00;;;6.65;;
55784;SDS011;41709;52.536;5.688;2023-05-10T07:38:59;10.07;;;6.95;;
55784;SDS011;41709;52.536;5.688;2023-05-10T07:41:25;9.55;;;7.53;;
55784;SDS011;41709;52.536;5.688;2023-05-10T07:43:52;9.00;;;6.30;;
55784;SDS011;41709;52.536;5.688;2023-05-10T07:46:17;8.35;;;6.40;;
55784;SDS011;41709;52.536;5.688;2023-05-10T07:48:44;11.02;;;8.02;;
55784;SDS011;41709;52.536;5.688;2023-05-10T07:51:10;12.23;;;7.07;;
55784;SDS011;41709;52.536;5.688;2023-05-10T07:53:36;12.27;;;6.70;;
55784;SDS011;41709;52.536;5.688;2023-05-10T07:58:50;9.55;;;7.10;;
55784;SDS011;41709;52.536;5.688;2023-05-10T08:01:16;8.88;;;6.45;;
55784;SDS011;41709;52.536;5.688;2023-05-10T08:03:42;11.55;;;6.75;;
55784;SDS011;41709;52.536;5.688;2023-05-10T08:06:08;11.40;;;6.97;;
55784;SDS011;41709;52.536;5.688;2023-05-10T08:08:33;12.02;;;7.55;;
55784;SDS011;41709;52.536;5.688;2023-05-10T08:10:59;13.15;;;7.88;;
55784;SDS011;41709;52.536;5.688;2023-05-10T08:13:25;11.73;;;8.25;;
55784;SDS011;41709;52.536;5.688;2023-05-10T08:15:50;9.68;;;6.90;;
55784;SDS011;41709;52.536;5.688;2023-05-10T08:18:18;11.95;;;6.82;;
55784;SDS011;41709;52.536;5.688;2023-05-10T08:20:43;10.90;;;7.35;;
55784;SDS011;41709;52.536;5.688;2023-05-10T08:23:09;10.45;;;6.30;;
55784;SDS011;41709;52.536;5.688;2023-05-10T08:25:35;13.10;;;7.60;;
55784;SDS011;41709;52.536;5.688;2023-05-10T08:28:00;10.13;;;6.80;;
55784;SDS011;41709;52.536;5.688;2023-05-10T08:30:26;13.50;;;8.07;;
55784;SDS011;41709;52.536;5.688;2023-05-10T08:32:51;9.75;;;6.60;;
55784;SDS011;41709;52.536;5.688;2023-05-10T08:35:17;10.88;;;7.65;;
55784;SDS011;41709;52.536;5.688;2023-05-10T08:37:42;11.70;;;7.63;;
55784;SDS011;41709;52.536;5.688;2023-05-10T08:40:08;11.10;;;7.72;;
55784;SDS011;41709;52.536;5.688;2023-05-10T08:42:36;12.90;;;7.20;;
55784;SDS011;41709;52.536;5.688;2023-05-10T08:45:06;9.60;;;7.10;;
55784;SDS011;41709;52.536;5.688;2023-05-10T08:47:34;9.30;;;7.22;;
55784;SDS011;41709;52.536;5.688;2023-05-10T08:50:03;11.50;;;7.68;;
55784;SDS011;41709;52.536;5.688;2023-05-10T08:52:28;9.48;;;6.43;;
55784;SDS011;41709;52.536;5.688;2023-05-10T08:54:57;11.90;;;7.30;;
55784;SDS011;41709;52.536;5.688;2023-05-10T08:57:23;8.40;;;6.10;;
55784;SDS011;41709;52.536;5.688;2023-05-10T08:59:48;9.45;;;6.35;;
55784;SDS011;41709;52.536;5.688;2023-05-10T09:02:14;11.50;;;7.13;;
55784;SDS011;41709;52.536;5.688;2023-05-10T09:04:40;12.52;;;7.82;;
55784;SDS011;41709;52.536;5.688;2023-05-10T09:07:06;11.85;;;7.35;;
55784;SDS011;41709;52.536;5.688;2023-05-10T09:09:32;10.30;;;7.10;;
55784;SDS011;41709;52.536;5.688;2023-05-10T09:11:58;10.40;;;7.30;;
55784;SDS011;41709;52.536;5.688;2023-05-10T09:14:24;10.05;;;7.13;;
55784;SDS011;41709;52.536;5.688;2023-05-10T09:16:50;12.68;;;7.85;;
55784;SDS011;41709;52.536;5.688;2023-05-10T09:19:16;10.20;;;6.78;;
55784;SDS011;41709;52.536;5.688;2023-05-10T09:21:42;9.18;;;6.68;;
55784;SDS011;41709;52.536;5.688;2023-05-10T09:24:08;10.93;;;7.32;;
55784;SDS011;41709;52.536;5.688;2023-05-10T09:26:34;10.23;;;6.95;;
55784;SDS011;41709;52.536;5.688;2023-05-10T09:29:10;9.60;;;7.00;;
55784;SDS011;41709;52.536;5.688;2023-05-10T09:31:49;10.18;;;7.30;;
55784;SDS011;41709;52.536;5.688;2023-05-10T09:34:19;8.55;;;6.40;;
55784;SDS011;41709;52.536;5.688;2023-05-10T09:36:54;10.13;;;7.60;;
55784;SDS011;41709;52.536;5.688;2023-05-10T09:39:29;12.48;;;7.60;;
55784;SDS011;41709;52.536;5.688;2023-05-10T09:41:56;10.75;;;7.07;;
55784;SDS011;41709;52.536;5.688;2023-05-10T09:44:23;11.57;;;7.80;;
55784;SDS011;41709;52.536;5.688;2023-05-10T09:46:51;12.35;;;7.75;;
55784;SDS011;41709;52.536;5.688;2023-05-10T09:49:20;10.73;;;7.30;;
55784;SDS011;41709;52.536;5.688;2023-05-10T09:51:46;9.45;;;7.30;;
55784;SDS011;41709;52.536;5.688;2023-05-10T09:54:12;10.85;;;7.57;;
55784;SDS011;41709;52.536;5.688;2023-05-10T09:56:39;9.45;;;7.15;;
55784;SDS011;41709;52.536;5.688;2023-05-10T09:59:06;11.70;;;8.02;;
55784;SDS011;41709;52.536;5.688;2023-05-10T10:01:33;9.77;;;6.65;;
55784;SDS011;41709;52.536;5.688;2023-05-10T10:04:02;10.90;;;7.75;;
55784;SDS011;41709;52.536;5.688;2023-05-10T10:08:54;11.48;;;7.38;;
55784;SDS011;41709;52.536;5.688;2023-05-10T10:11:21;9.15;;;7.07;;
55784;SDS011;41709;52.536;5.688;2023-05-10T10:13:48;12.18;;;7.38;;
55784;SDS011;41709;52.536;5.688;2023-05-10T10:16:14;11.25;;;7.18;;
55784;SDS011;41709;52.536;5.688;2023-05-10T10:18:40;11.75;;;8.05;;
55784;SDS011;41709;52.536;5.688;2023-05-10T10:21:06;12.13;;;7.75;;
55784;SDS011;41709;52.536;5.688;2023-05-10T10:23:34;8.68;;;6.65;;
55784;SDS011;41709;52.536;5.688;2023-05-10T10:26:00;9.73;;;7.25;;
55784;SDS011;41709;52.536;5.688;2023-05-10T10:31:28;11.20;;;7.53;;
55784;SDS011;41709;52.536;5.688;2023-05-10T10:34:03;10.65;;;7.50;;
55784;SDS011;41709;52.536;5.688;2023-05-10T10:36:32;12.40;;;7.28;;
55784;SDS011;41709;52.536;5.688;2023-05-10T10:39:11;9.75;;;5.82;;
55784;SDS011;41709;52.536;5.688;2023-05-10T10:41:37;8.57;;;6.75;;
55784;SDS011;41709;52.536;5.688;2023-05-10T10:47:04;10.57;;;6.75;;
55784;SDS011;41709;52.536;5.688;2023-05-10T10:50:07;9.63;;;5.65;;
55784;SDS011;41709;52.536;5.688;2023-05-10T10:52:36;9.07;;;6.35;;
55784;SDS011;41709;52.536;5.688;2023-05-10T10:57:42;8.00;;;6.15;;
55784;SDS011;41709;52.536;5.688;2023-05-10T11:02:46;15.20;;;6.07;;
55784;SDS011;41709;52.536;5.688;2023-05-10T11:07:57;8.25;;;5.15;;
55784;SDS011;41709;52.536;5.688;2023-05-10T11:10:25;6.50;;;5.28;;
55784;SDS011;41709;52.536;5.688;2023-05-10T11:15:17;6.53;;;5.43;;
55784;SDS011;41709;52.536;5.688;2023-05-10T11:17:43;7.63;;;5.25;;
55784;SDS011;41709;52.536;5.688;2023-05-10T11:20:09;5.93;;;4.88;;
55784;SDS011;41709;52.536;5.688;2023-05-10T11:22:51;6.53;;;4.38;;
55784;SDS011;41709;52.536;5.688;2023-05-10T11:25:17;9.95;;;6.72;;
55784;SDS011;41709;52.536;5.688;2023-05-10T11:27:43;8.82;;;6.13;;
55784;SDS011;41709;52.536;5.688;2023-05-10T11:30:10;9.63;;;7.25;;
55784;SDS011;41709;52.536;5.688;2023-05-10T11:32:39;8.77;;;5.35;;
55784;SDS011;41709;52.536;5.688;2023-05-10T11:35:09;7.03;;;5.10;;
55784;SDS011;41709;52.536;5.688;2023-05-10T11:37:35;8.35;;;5.45;;
55784;SDS011;41709;52.536;5.688;2023-05-10T11:40:01;6.63;;;4.65;;
55784;SDS011;41709;52.536;5.688;2023-05-10T11:42:27;9.32;;;4.80;;
55784;SDS011;41709;52.536;5.688;2023-05-10T11:44:53;8.55;;;4.88;;
55784;SDS011;41709;52.536;5.688;2023-05-10T11:47:19;7.80;;;4.95;;
55784;SDS011;41709;52.536;5.688;2023-05-10T11:49:45;6.65;;;5.15;;
55784;SDS011;41709;52.536;5.688;2023-05-10T11:52:11;7.28;;;4.50;;
55784;SDS011;41709;52.536;5.688;2023-05-10T11:54:37;5.60;;;4.38;;
55784;SDS011;41709;52.536;5.688;2023-05-10T11:57:03;6.53;;;5.35;;
55784;SDS011;41709;52.536;5.688;2023-05-10T11:59:28;7.95;;;5.00;;
55784;SDS011;41709;52.536;5.688;2023-05-10T12:01:54;6.20;;;5.15;;
55784;SDS011;41709;52.536;5.688;2023-05-10T12:04:20;9.63;;;5.63;;
55784;SDS011;41709;52.536;5.688;2023-05-10T12:06:46;10.63;;;6.70;;
55784;SDS011;41709;52.536;5.688;2023-05-10T12:09:12;9.55;;;6.47;;
55784;SDS011;41709;52.536;5.688;2023-05-10T12:11:38;8.18;;;6.43;;
55784;SDS011;41709;52.536;5.688;2023-05-10T12:14:05;9.98;;;6.55;;
55784;SDS011;41709;52.536;5.688;2023-05-10T12:16:31;7.85;;;5.78;;
55784;SDS011;41709;52.536;5.688;2023-05-10T12:18:57;7.75;;;6.03;;
55784;SDS011;41709;52.536;5.688;2023-05-10T12:21:25;10.07;;;6.40;;
55784;SDS011;41709;52.536;5.688;2023-05-10T12:23:52;10.77;;;6.28;;
55784;SDS011;41709;52.536;5.688;2023-05-10T12:26:24;8.18;;;5.63;;
55784;SDS011;41709;52.536;5.688;2023-05-10T12:28:53;9.15;;;5.95;;
55784;SDS011;41709;52.536;5.688;2023-05-10T12:31:19;7.60;;;5.15;;
55784;SDS011;41709;52.536;5.688;2023-05-10T12:33:45;6.35;;;4.53;;
55784;SDS011;41709;52.536;5.688;2023-05-10T12:36:13;9.18;;;5.18;;
55784;SDS011;41709;52.536;5.688;2023-05-10T12:38:41;6.05;;;4.63;;
55784;SDS011;41709;52.536;5.688;2023-05-10T12:41:14;8.13;;;5.43;;
55784;SDS011;41709;52.536;5.688;2023-05-10T12:43:41;6.72;;;5.38;;
55784;SDS011;41709;52.536;5.688;2023-05-10T12:46:16;6.22;;;5.00;;
55784;SDS011;41709;52.536;5.688;2023-05-10T12:48:42;8.80;;;6.15;;
55784;SDS011;41709;52.536;5.688;2023-05-10T12:51:09;12.15;;;6.85;;
55784;SDS011;41709;52.536;5.688;2023-05-10T12:53:36;10.10;;;6.47;;
55784;SDS011;41709;52.536;5.688;2023-05-10T12:56:02;14.70;;;7.82;;
55784;SDS011;41709;52.536;5.688;2023-05-10T12:58:28;10.40;;;6.93;;
55784;SDS011;41709;52.536;5.688;2023-05-10T13:00:54;10.75;;;6.80;;
55784;SDS011;41709;52.536;5.688;2023-05-10T13:03:21;9.20;;;6.43;;
55784;SDS011;41709;52.536;5.688;2023-05-10T13:05:47;9.85;;;6.05;;
55784;SDS011;41709;52.536;5.688;2023-05-10T13:08:12;11.38;;;5.38;;
55784;SDS011;41709;52.536;5.688;2023-05-10T13:10:38;8.40;;;5.03;;
55784;SDS011;41709;52.536;5.688;2023-05-10T13:13:04;9.20;;;4.68;;
55784;SDS011;41709;52.536;5.688;2023-05-10T13:15:30;11.20;;;5.97;;
55784;SDS011;41709;52.536;5.688;2023-05-10T13:17:55;6.15;;;4.82;;
55784;SDS011;41709;52.536;5.688;2023-05-10T13:20:21;4.55;;;3.10;;
55784;SDS011;41709;52.536;5.688;2023-05-10T13:22:46;6.30;;;4.35;;
55784;SDS011;41709;52.536;5.688;2023-05-10T13:25:12;5.53;;;4.30;;
55784;SDS011;41709;52.536;5.688;2023-05-10T13:27:41;6.35;;;4.05;;
55784;SDS011;41709;52.536;5.688;2023-05-10T13:30:07;4.40;;;2.65;;
55784;SDS011;41709;52.536;5.688;2023-05-10T13:32:33;3.70;;;2.80;;
55784;SDS011;41709;52.536;5.688;2023-05-10T13:34:59;4.95;;;3.30;;
55784;SDS011;41709;52.536;5.688;2023-05-10T13:37:25;5.28;;;2.83;;
55784;SDS011;41709;52.536;5.688;2023-05-10T13:39:50;3.40;;;2.70;;
55784;SDS011;41709;52.536;5.688;2023-05-10T13:42:16;5.90;;;2.75;;
55784;SDS011;41709;52.536;5.688;2023-05-10T13:44:42;6.28;;;4.20;;
55784;SDS011;41709;52.536;5.688;2023-05-10T13:47:08;7.70;;;5.50;;
55784;SDS011;41709;52.536;5.688;2023-05-10T13:49:33;7.63;;;4.97;;
55784;SDS011;41709;52.536;5.688;2023-05-10T13:51:59;6.47;;;3.55;;
55784;SDS011;41709;52.536;5.688;2023-05-10T13:54:31;7.28;;;4.60;;
55784;SDS011;41709;52.536;5.688;2023-05-10T13:56:57;6.47;;;3.83;;
55784;SDS011;41709;52.536;5.688;2023-05-10T13:59:24;6.05;;;3.53;;
55784;SDS011;41709;52.536;5.688;2023-05-10T14:01:49;6.32;;;4.20;;
55784;SDS011;41709;52.536;5.688;2023-05-10T14:04:15;4.72;;;3.08;;
55784;SDS011;41709;52.536;5.688;2023-05-10T14:06:40;4.07;;;3.08;;
55784;SDS011;41709;52.536;5.688;2023-05-10T14:09:06;3.70;;;2.45;;
55784;SDS011;41709;52.536;5.688;2023-05-10T14:11:31;4.45;;;2.60;;
55784;SDS011;41709;52.536;5.688;2023-05-10T14:13:57;4.75;;;2.70;;
55784;SDS011;41709;52.536;5.688;2023-05-10T14:16:22;4.97;;;3.28;;
55784;SDS011;41709;52.536;5.688;2023-05-10T14:18:48;6.95;;;3.92;;
55784;SDS011;41709;52.536;5.688;2023-05-10T14:21:13;6.00;;;4.00;;
55784;SDS011;41709;52.536;5.688;2023-05-10T14:23:40;6.30;;;3.45;;
55784;SDS011;41709;52.536;5.688;2023-05-10T14:26:05;4.38;;;3.80;;
55784;SDS011;41709;52.536;5.688;2023-05-10T14:28:31;6.97;;;3.80;;
55784;SDS011;41709;52.536;5.688;2023-05-10T14:30:57;6.00;;;3.50;;
55784;SDS011;41709;52.536;5.688;2023-05-10T14:33:22;6.22;;;3.47;;
55784;SDS011;41709;52.536;5.688;2023-05-10T14:35:48;6.57;;;4.22;;
55784;SDS011;41709;52.536;5.688;2023-05-10T14:38:14;6.35;;;4.72;;
55784;SDS011;41709;52.536;5.688;2023-05-10T14:40:39;7.70;;;4.63;;
55784;SDS011;41709;52.536;5.688;2023-05-10T14:43:05;5.97;;;4.60;;
55784;SDS011;41709;52.536;5.688;2023-05-10T14:45:30;9.73;;;5.72;;
55784;SDS011;41709;52.536;5.688;2023-05-10T14:47:56;9.25;;;6.90;;
55784;SDS011;41709;52.536;5.688;2023-05-10T14:50:22;11.15;;;6.85;;
55784;SDS011;41709;52.536;5.688;2023-05-10T14:52:48;10.48;;;6.72;;
55784;SDS011;41709;52.536;5.688;2023-05-10T14:55:14;7.45;;;5.25;;
55784;SDS011;41709;52.536;5.688;2023-05-10T14:57:40;9.50;;;5.57;;
55784;SDS011;41709;52.536;5.688;2023-05-10T15:00:06;8.38;;;4.95;;
55784;SDS011;41709;52.536;5.688;2023-05-10T15:02:32;7.10;;;4.75;;
55784;SDS011;41709;52.536;5.688;2023-05-10T15:04:57;6.65;;;4.38;;
55784;SDS011;41709;52.536;5.688;2023-05-10T15:07:23;7.30;;;4.43;;
55784;SDS011;41709;52.536;5.688;2023-05-10T15:09:49;6.38;;;4.40;;
55784;SDS011;41709;52.536;5.688;2023-05-10T15:12:16;6.80;;;4.15;;
55784;SDS011;41709;52.536;5.688;2023-05-10T15:14:43;7.25;;;4.50;;
55784;SDS011;41709;52.536;5.688;2023-05-10T15:17:08;9.52;;;5.85;;
55784;SDS011;41709;52.536;5.688;2023-05-10T15:19:35;11.02;;;6.18;;
55784;SDS011;41709;52.536;5.688;2023-05-10T15:22:01;8.82;;;5.70;;